sensor_id;sensor_type;location;lat;lon;timestamp;temperature;humidity
64652;HTU21D;51062;45.120;37.660;2023-06-22T00:00:53;19.00;60.56
64652;HTU21D;51062;45.120;37.660;2023-06-22T00:03:20;18.96;60.67
64652;HTU21D;51062;45.120;37.660;2023-06-22T00:05:47;18.95;60.73
64652;HTU21D;51062;45.120;37.660;2023-06-22T00:08:14;18.93;60.74
64652;HTU21D;51062;45.120;37.660;2023-06-22T00:10:40;18.92;60.78
64652;HTU21D;51062;45.120;37.660;2023-06-22T00:13:07;18.91;60.80
64652;HTU21D;51062;45.120;37.660;2023-06-22T00:15:34;18.88;60.85
64652;HTU21D;51062;45.120;37.660;2023-06-22T00:18:01;18.83;60.95
64652;HTU21D;51062;45.120;37.660;2023-06-22T00:20:28;18.80;61.03
64652;HTU21D;51062;45.120;37.660;2023-06-22T00:22:58;18.78;61.12
64652;HTU21D;51062;45.120;37.660;2023-06-22T00:25:25;18.77;61.23
64652;HTU21D;51062;45.120;37.660;2023-06-22T00:27:52;18.74;61.24
64652;HTU21D;51062;45.120;37.660;2023-06-22T00:30:18;18.71;61.29
64652;HTU21D;51062;45.120;37.660;2023-06-22T00:32:45;18.69;61.32
64652;HTU21D;51062;45.120;37.660;2023-06-22T00:35:14;18.68;61.38
64652;HTU21D;51062;45.120;37.660;2023-06-22T00:37:40;18.68;61.41
64652;HTU21D;51062;45.120;37.660;2023-06-22T00:40:12;18.66;61.45
64652;HTU21D;51062;45.120;37.660;2023-06-22T00:42:40;18.64;61.47
64652;HTU21D;51062;45.120;37.660;2023-06-22T00:45:08;18.63;61.50
64652;HTU21D;51062;45.120;37.660;2023-06-22T00:47:34;18.61;61.57
64652;HTU21D;51062;45.120;37.660;2023-06-22T00:50:06;18.59;61.64
64652;HTU21D;51062;45.120;37.660;2023-06-22T00:52:33;18.57;61.63
64652;HTU21D;51062;45.120;37.660;2023-06-22T00:55:02;18.56;61.65
64652;HTU21D;51062;45.120;37.660;2023-06-22T00:57:30;18.52;61.73
64652;HTU21D;51062;45.120;37.660;2023-06-22T00:59:56;18.50;61.79
64652;HTU21D;51062;45.120;37.660;2023-06-22T01:02:22;18.49;61.82
64652;HTU21D;51062;45.120;37.660;2023-06-22T01:04:48;18.48;61.86
64652;HTU21D;51062;45.120;37.660;2023-06-22T01:07:38;18.44;61.93
64652;HTU21D;51062;45.120;37.660;2023-06-22T01:10:16;18.43;61.96
64652;HTU21D;51062;45.120;37.660;2023-06-22T01:12:57;18.41;62.00
64652;HTU21D;51062;45.120;37.660;2023-06-22T01:15:52;18.42;61.99
64652;HTU21D;51062;45.120;37.660;2023-06-22T01:18:22;18.41;61.98
64652;HTU21D;51062;45.120;37.660;2023-06-22T01:20:53;18.40;61.97
64652;HTU21D;51062;45.120;37.660;2023-06-22T01:23:51;18.38;62.02
64652;HTU21D;51062;45.120;37.660;2023-06-22T01:26:34;18.36;62.06
64652;HTU21D;51062;45.120;37.660;2023-06-22T01:29:04;18.36;62.06
64652;HTU21D;51062;45.120;37.660;2023-06-22T01:31:31;18.36;62.08
64652;HTU21D;51062;45.120;37.660;2023-06-22T01:34:00;18.34;62.12
64652;HTU21D;51062;45.120;37.660;2023-06-22T01:36:29;18.33;62.15
64652;HTU21D;51062;45.120;37.660;2023-06-22T01:38:57;18.32;62.16
64652;HTU21D;51062;45.120;37.660;2023-06-22T01:41:25;18.33;62.20
64652;HTU21D;51062;45.120;37.660;2023-06-22T01:43:53;18.30;62.27
64652;HTU21D;51062;45.120;37.660;2023-06-22T01:46:20;18.29;62.31
64652;HTU21D;51062;45.120;37.660;2023-06-22T01:48:48;18.29;62.36
64652;HTU21D;51062;45.120;37.660;2023-06-22T01:51:14;18.30;62.39
64652;HTU21D;51062;45.120;37.660;2023-06-22T01:53:41;18.33;62.38
64652;HTU21D;51062;45.120;37.660;2023-06-22T01:56:08;18.35;62.39
64652;HTU21D;51062;45.120;37.660;2023-06-22T01:58:37;18.39;62.41
64652;HTU21D;51062;45.120;37.660;2023-06-22T02:01:11;18.42;62.44
64652;HTU21D;51062;45.120;37.660;2023-06-22T02:03:44;18.48;62.41
64652;HTU21D;51062;45.120;37.660;2023-06-22T02:06:24;18.52;62.36
64652;HTU21D;51062;45.120;37.660;2023-06-22T02:08:57;18.57;62.33
64652;HTU21D;51062;45.120;37.660;2023-06-22T02:11:26;18.61;62.29
64652;HTU21D;51062;45.120;37.660;2023-06-22T02:13:53;18.66;62.29
64652;HTU21D;51062;45.120;37.660;2023-06-22T02:16:21;18.70;62.31
64652;HTU21D;51062;45.120;37.660;2023-06-22T02:18:51;18.76;62.31
64652;HTU21D;51062;45.120;37.660;2023-06-22T02:21:21;18.81;62.27
64652;HTU21D;51062;45.120;37.660;2023-06-22T02:23:47;18.87;62.21
64652;HTU21D;51062;45.120;37.660;2023-06-22T02:26:15;18.92;62.18
64652;HTU21D;51062;45.120;37.660;2023-06-22T02:28:41;18.97;62.15
64652;HTU21D;51062;45.120;37.660;2023-06-22T02:31:08;19.02;62.13
64652;HTU21D;51062;45.120;37.660;2023-06-22T02:33:34;19.06;62.12
64652;HTU21D;51062;45.120;37.660;2023-06-22T02:36:00;19.13;62.12
64652;HTU21D;51062;45.120;37.660;2023-06-22T02:38:33;19.22;62.10
64652;HTU21D;51062;45.120;37.660;2023-06-22T02:41:00;19.27;62.05
64652;HTU21D;51062;45.120;37.660;2023-06-22T02:43:27;19.36;62.02
64652;HTU21D;51062;45.120;37.660;2023-06-22T02:45:53;19.48;62.02
64652;HTU21D;51062;45.120;37.660;2023-06-22T02:48:19;19.77;62.10
64652;HTU21D;51062;45.120;37.660;2023-06-22T02:50:45;20.31;62.24
64652;HTU21D;51062;45.120;37.660;2023-06-22T02:53:11;20.90;62.50
64652;HTU21D;51062;45.120;37.660;2023-06-22T02:55:41;21.55;62.55
64652;HTU21D;51062;45.120;37.660;2023-06-22T02:58:08;22.17;62.44
64652;HTU21D;51062;45.120;37.660;2023-06-22T03:00:36;22.79;62.24
64652;HTU21D;51062;45.120;37.660;2023-06-22T03:03:05;23.36;62.11
64652;HTU21D;51062;45.120;37.660;2023-06-22T03:05:31;23.85;62.03
64652;HTU21D;51062;45.120;37.660;2023-06-22T03:07:59;24.32;61.88
64652;HTU21D;51062;45.120;37.660;2023-06-22T03:10:28;24.78;61.71
64652;HTU21D;51062;45.120;37.660;2023-06-22T03:12:54;25.20;61.54
64652;HTU21D;51062;45.120;37.660;2023-06-22T03:15:21;25.63;61.25
64652;HTU21D;51062;45.120;37.660;2023-06-22T03:17:47;25.97;61.08
64652;HTU21D;51062;45.120;37.660;2023-06-22T03:20:13;26.26;60.96
64652;HTU21D;51062;45.120;37.660;2023-06-22T03:22:41;26.55;60.87
64652;HTU21D;51062;45.120;37.660;2023-06-22T03:25:09;26.80;60.68
64652;HTU21D;51062;45.120;37.660;2023-06-22T03:27:44;27.04;60.55
64652;HTU21D;51062;45.120;37.660;2023-06-22T03:30:11;27.32;60.22
64652;HTU21D;51062;45.120;37.660;2023-06-22T03:32:38;27.63;59.86
64652;HTU21D;51062;45.120;37.660;2023-06-22T03:35:06;27.91;59.61
64652;HTU21D;51062;45.120;37.660;2023-06-22T03:37:34;28.23;59.27
64652;HTU21D;51062;45.120;37.660;2023-06-22T03:40:01;28.56;58.69
64652;HTU21D;51062;45.120;37.660;2023-06-22T03:42:31;28.86;58.07
64652;HTU21D;51062;45.120;37.660;2023-06-22T03:44:57;29.07;57.61
64652;HTU21D;51062;45.120;37.660;2023-06-22T03:47:24;29.26;57.37
64652;HTU21D;51062;45.120;37.660;2023-06-22T03:49:50;29.41;57.22
64652;HTU21D;51062;45.120;37.660;2023-06-22T03:52:21;29.59;56.79
64652;HTU21D;51062;45.120;37.660;2023-06-22T03:54:48;29.61;56.68
64652;HTU21D;51062;45.120;37.660;2023-06-22T03:57:14;29.68;56.59
64652;HTU21D;51062;45.120;37.660;2023-06-22T03:59:40;29.79;56.31
64652;HTU21D;51062;45.120;37.660;2023-06-22T04:02:06;29.90;55.95
64652;HTU21D;51062;45.120;37.660;2023-06-22T04:04:32;29.83;55.88
64652;HTU21D;51062;45.120;37.660;2023-06-22T04:06:59;29.73;56.21
64652;HTU21D;51062;45.120;37.660;2023-06-22T04:09:25;29.41;56.58
64652;HTU21D;51062;45.120;37.660;2023-06-22T04:11:51;28.91;56.73
64652;HTU21D;51062;45.120;37.660;2023-06-22T04:14:17;28.44;56.55
64652;HTU21D;51062;45.120;37.660;2023-06-22T04:16:44;28.14;55.94
64652;HTU21D;51062;45.120;37.660;2023-06-22T04:19:10;28.26;55.08
64652;HTU21D;51062;45.120;37.660;2023-06-22T04:21:45;28.65;54.50
64652;HTU21D;51062;45.120;37.660;2023-06-22T04:24:11;29.06;54.24
64652;HTU21D;51062;45.120;37.660;2023-06-22T04:26:37;29.41;53.82
64652;HTU21D;51062;45.120;37.660;2023-06-22T04:29:07;29.64;53.76
64652;HTU21D;51062;45.120;37.660;2023-06-22T04:31:35;29.85;53.74
64652;HTU21D;51062;45.120;37.660;2023-06-22T04:34:06;30.01;53.62
64652;HTU21D;51062;45.120;37.660;2023-06-22T04:36:34;30.31;53.58
64652;HTU21D;51062;45.120;37.660;2023-06-22T04:39:10;30.64;53.52
64652;HTU21D;51062;45.120;37.660;2023-06-22T04:41:38;30.96;53.24
64652;HTU21D;51062;45.120;37.660;2023-06-22T04:44:14;31.22;52.88
64652;HTU21D;51062;45.120;37.660;2023-06-22T04:46:54;31.43;52.41
64652;HTU21D;51062;45.120;37.660;2023-06-22T04:49:26;31.41;52.40
64652;HTU21D;51062;45.120;37.660;2023-06-22T04:51:59;31.48;52.25
64652;HTU21D;51062;45.120;37.660;2023-06-22T04:54:26;31.64;52.17
64652;HTU21D;51062;45.120;37.660;2023-06-22T04:56:52;31.80;51.88
64652;HTU21D;51062;45.120;37.660;2023-06-22T04:59:25;31.98;51.62
64652;HTU21D;51062;45.120;37.660;2023-06-22T05:01:57;32.07;51.24
64652;HTU21D;51062;45.120;37.660;2023-06-22T05:04:25;32.13;51.25
64652;HTU21D;51062;45.120;37.660;2023-06-22T05:06:52;32.35;50.94
64652;HTU21D;51062;45.120;37.660;2023-06-22T05:09:18;32.56;50.68
64652;HTU21D;51062;45.120;37.660;2023-06-22T05:11:45;32.69;50.36
64652;HTU21D;51062;45.120;37.660;2023-06-22T05:14:11;32.76;50.21
64652;HTU21D;51062;45.120;37.660;2023-06-22T05:16:37;32.85;49.87
64652;HTU21D;51062;45.120;37.660;2023-06-22T05:19:04;32.77;49.76
64652;HTU21D;51062;45.120;37.660;2023-06-22T05:21:30;32.73;49.91
64652;HTU21D;51062;45.120;37.660;2023-06-22T05:23:57;32.82;49.81
64652;HTU21D;51062;45.120;37.660;2023-06-22T05:26:26;33.06;49.61
64652;HTU21D;51062;45.120;37.660;2023-06-22T05:28:53;33.36;49.28
64652;HTU21D;51062;45.120;37.660;2023-06-22T05:31:20;33.59;48.88
64652;HTU21D;51062;45.120;37.660;2023-06-22T05:33:46;33.83;48.53
64652;HTU21D;51062;45.120;37.660;2023-06-22T05:36:14;34.12;48.20
64652;HTU21D;51062;45.120;37.660;2023-06-22T05:38:41;34.41;47.83
64652;HTU21D;51062;45.120;37.660;2023-06-22T05:41:08;34.63;47.60
64652;HTU21D;51062;45.120;37.660;2023-06-22T05:43:34;34.77;47.28
64652;HTU21D;51062;45.120;37.660;2023-06-22T05:46:01;34.92;47.02
64652;HTU21D;51062;45.120;37.660;2023-06-22T05:48:28;35.04;46.75
64652;HTU21D;51062;45.120;37.660;2023-06-22T05:50:54;35.14;46.72
64652;HTU21D;51062;45.120;37.660;2023-06-22T05:53:20;35.35;46.35
64652;HTU21D;51062;45.120;37.660;2023-06-22T05:55:47;35.40;46.09
64652;HTU21D;51062;45.120;37.660;2023-06-22T05:58:13;35.51;45.95
64652;HTU21D;51062;45.120;37.660;2023-06-22T06:00:39;35.60;45.61
64652;HTU21D;51062;45.120;37.660;2023-06-22T06:03:10;35.59;45.57
64652;HTU21D;51062;45.120;37.660;2023-06-22T06:05:37;35.57;45.54
64652;HTU21D;51062;45.120;37.660;2023-06-22T06:08:05;35.43;45.45
64652;HTU21D;51062;45.120;37.660;2023-06-22T06:10:32;35.37;45.41
64652;HTU21D;51062;45.120;37.660;2023-06-22T06:12:58;35.31;45.22
64652;HTU21D;51062;45.120;37.660;2023-06-22T06:15:25;35.24;45.06
64652;HTU21D;51062;45.120;37.660;2023-06-22T06:17:52;35.05;44.78
64652;HTU21D;51062;45.120;37.660;2023-06-22T06:20:20;34.96;44.96
64652;HTU21D;51062;45.120;37.660;2023-06-22T06:22:48;35.14;44.88
64652;HTU21D;51062;45.120;37.660;2023-06-22T06:25:14;35.38;44.66
64652;HTU21D;51062;45.120;37.660;2023-06-22T06:27:46;35.54;44.39
64652;HTU21D;51062;45.120;37.660;2023-06-22T06:30:14;35.80;44.10
64652;HTU21D;51062;45.120;37.660;2023-06-22T06:32:41;35.69;43.76
64652;HTU21D;51062;45.120;37.660;2023-06-22T06:35:09;35.42;43.83
64652;HTU21D;51062;45.120;37.660;2023-06-22T06:37:37;35.27;44.03
64652;HTU21D;51062;45.120;37.660;2023-06-22T06:40:05;35.12;43.70
64652;HTU21D;51062;45.120;37.660;2023-06-22T06:42:34;34.97;43.80
64652;HTU21D;51062;45.120;37.660;2023-06-22T06:45:00;34.94;43.90
64652;HTU21D;51062;45.120;37.660;2023-06-22T06:47:26;35.03;43.61
64652;HTU21D;51062;45.120;37.660;2023-06-22T06:49:52;35.00;43.61
64652;HTU21D;51062;45.120;37.660;2023-06-22T06:52:18;35.08;43.47
64652;HTU21D;51062;45.120;37.660;2023-06-22T06:54:45;35.12;43.29
64652;HTU21D;51062;45.120;37.660;2023-06-22T06:57:11;35.01;43.19
64652;HTU21D;51062;45.120;37.660;2023-06-22T06:59:39;34.94;43.19
64652;HTU21D;51062;45.120;37.660;2023-06-22T07:02:05;35.04;43.19
64652;HTU21D;51062;45.120;37.660;2023-06-22T07:04:31;35.15;43.19
64652;HTU21D;51062;45.120;37.660;2023-06-22T07:07:00;35.16;42.99
64652;HTU21D;51062;45.120;37.660;2023-06-22T07:09:27;35.07;43.05
64652;HTU21D;51062;45.120;37.660;2023-06-22T07:11:53;35.03;43.11
64652;HTU21D;51062;45.120;37.660;2023-06-22T07:14:19;35.13;42.98
64652;HTU21D;51062;45.120;37.660;2023-06-22T07:16:45;35.06;42.64
64652;HTU21D;51062;45.120;37.660;2023-06-22T07:19:12;34.92;42.66
64652;HTU21D;51062;45.120;37.660;2023-06-22T07:21:39;34.96;42.85
64652;HTU21D;51062;45.120;37.660;2023-06-22T07:24:08;35.08;42.67
64652;HTU21D;51062;45.120;37.660;2023-06-22T07:26:34;35.10;42.54
64652;HTU21D;51062;45.120;37.660;2023-06-22T07:29:00;35.27;42.41
64652;HTU21D;51062;45.120;37.660;2023-06-22T07:31:26;35.52;42.07
64652;HTU21D;51062;45.120;37.660;2023-06-22T07:33:52;35.55;41.78
64652;HTU21D;51062;45.120;37.660;2023-06-22T07:36:18;35.55;41.94
64652;HTU21D;51062;45.120;37.660;2023-06-22T07:38:44;35.62;41.63
64652;HTU21D;51062;45.120;37.660;2023-06-22T07:41:11;35.56;41.60
64652;HTU21D;51062;45.120;37.660;2023-06-22T07:43:37;35.57;41.55
64652;HTU21D;51062;45.120;37.660;2023-06-22T07:46:03;35.49;41.36
64652;HTU21D;51062;45.120;37.660;2023-06-22T07:48:29;35.44;41.41
64652;HTU21D;51062;45.120;37.660;2023-06-22T07:50:55;35.39;41.29
64652;HTU21D;51062;45.120;37.660;2023-06-22T07:53:22;35.14;41.26
64652;HTU21D;51062;45.120;37.660;2023-06-22T07:55:49;35.04;41.20
64652;HTU21D;51062;45.120;37.660;2023-06-22T07:58:16;34.90;41.08
64652;HTU21D;51062;45.120;37.660;2023-06-22T08:00:44;34.71;41.01
64652;HTU21D;51062;45.120;37.660;2023-06-22T08:03:10;34.46;40.88
64652;HTU21D;51062;45.120;37.660;2023-06-22T08:05:36;34.03;40.92
64652;HTU21D;51062;45.120;37.660;2023-06-22T08:08:02;33.62;41.10
64652;HTU21D;51062;45.120;37.660;2023-06-22T08:10:29;33.22;41.31
64652;HTU21D;51062;45.120;37.660;2023-06-22T08:12:55;32.82;41.62
64652;HTU21D;51062;45.120;37.660;2023-06-22T08:15:21;32.46;41.87
64652;HTU21D;51062;45.120;37.660;2023-06-22T08:17:47;32.16;42.07
64652;HTU21D;51062;45.120;37.660;2023-06-22T08:20:14;31.85;42.31
64652;HTU21D;51062;45.120;37.660;2023-06-22T08:22:41;31.58;42.50
64652;HTU21D;51062;45.120;37.660;2023-06-22T08:25:08;31.36;42.78
64652;HTU21D;51062;45.120;37.660;2023-06-22T08:27:34;31.18;42.91
64652;HTU21D;51062;45.120;37.660;2023-06-22T08:30:01;31.04;43.03
64652;HTU21D;51062;45.120;37.660;2023-06-22T08:32:28;30.87;43.18
64652;HTU21D;51062;45.120;37.660;2023-06-22T08:34:56;30.77;43.29
64652;HTU21D;51062;45.120;37.660;2023-06-22T08:37:22;30.65;43.37
64652;HTU21D;51062;45.120;37.660;2023-06-22T08:40:00;30.59;43.47
64652;HTU21D;51062;45.120;37.660;2023-06-22T08:42:34;30.60;43.47
64652;HTU21D;51062;45.120;37.660;2023-06-22T08:45:00;30.61;43.48
64652;HTU21D;51062;45.120;37.660;2023-06-22T08:47:29;30.59;43.46
64652;HTU21D;51062;45.120;37.660;2023-06-22T08:49:55;30.56;43.52
64652;HTU21D;51062;45.120;37.660;2023-06-22T08:52:23;30.52;43.53
64652;HTU21D;51062;45.120;37.660;2023-06-22T08:54:49;30.37;43.46
64652;HTU21D;51062;45.120;37.660;2023-06-22T08:57:15;30.18;43.75
64652;HTU21D;51062;45.120;37.660;2023-06-22T08:59:42;30.10;43.90
64652;HTU21D;51062;45.120;37.660;2023-06-22T09:02:08;30.10;43.93
64652;HTU21D;51062;45.120;37.660;2023-06-22T09:04:34;30.09;43.83
64652;HTU21D;51062;45.120;37.660;2023-06-22T09:07:01;30.08;43.87
64652;HTU21D;51062;45.120;37.660;2023-06-22T09:09:27;30.05;43.84
64652;HTU21D;51062;45.120;37.660;2023-06-22T09:11:53;30.06;43.76
64652;HTU21D;51062;45.120;37.660;2023-06-22T09:14:19;30.02;43.67
64652;HTU21D;51062;45.120;37.660;2023-06-22T09:16:45;29.93;43.80
64652;HTU21D;51062;45.120;37.660;2023-06-22T09:19:12;29.95;43.80
64652;HTU21D;51062;45.120;37.660;2023-06-22T09:21:38;29.97;43.79
64652;HTU21D;51062;45.120;37.660;2023-06-22T09:24:04;30.03;43.81
64652;HTU21D;51062;45.120;37.660;2023-06-22T09:26:30;30.05;43.67
64652;HTU21D;51062;45.120;37.660;2023-06-22T09:28:57;30.07;43.61
64652;HTU21D;51062;45.120;37.660;2023-06-22T09:31:23;30.08;43.49
64652;HTU21D;51062;45.120;37.660;2023-06-22T09:33:55;30.10;43.48
64652;HTU21D;51062;45.120;37.660;2023-06-22T09:36:21;30.13;43.38
64652;HTU21D;51062;45.120;37.660;2023-06-22T09:38:48;30.12;43.31
64652;HTU21D;51062;45.120;37.660;2023-06-22T09:41:14;30.09;43.26
64652;HTU21D;51062;45.120;37.660;2023-06-22T09:43:41;30.07;43.22
64652;HTU21D;51062;45.120;37.660;2023-06-22T09:46:07;30.04;43.10
64652;HTU21D;51062;45.120;37.660;2023-06-22T09:48:35;30.02;43.08
64652;HTU21D;51062;45.120;37.660;2023-06-22T09:51:01;30.00;42.98
64652;HTU21D;51062;45.120;37.660;2023-06-22T09:53:27;29.94;42.92
64652;HTU21D;51062;45.120;37.660;2023-06-22T09:55:54;29.91;42.88
64652;HTU21D;51062;45.120;37.660;2023-06-22T09:58:20;29.88;42.87
64652;HTU21D;51062;45.120;37.660;2023-06-22T10:00:46;29.88;42.86
64652;HTU21D;51062;45.120;37.660;2023-06-22T10:03:12;29.88;42.77
64652;HTU21D;51062;45.120;37.660;2023-06-22T10:05:38;29.88;42.71
64652;HTU21D;51062;45.120;37.660;2023-06-22T10:08:04;29.83;42.72
64652;HTU21D;51062;45.120;37.660;2023-06-22T10:10:30;29.86;42.68
64652;HTU21D;51062;45.120;37.660;2023-06-22T10:12:57;29.86;42.62
64652;HTU21D;51062;45.120;37.660;2023-06-22T10:15:28;29.85;42.56
64652;HTU21D;51062;45.120;37.660;2023-06-22T10:17:54;29.85;42.53
64652;HTU21D;51062;45.120;37.660;2023-06-22T10:20:20;29.82;42.53
64652;HTU21D;51062;45.120;37.660;2023-06-22T10:22:47;29.83;42.52
64652;HTU21D;51062;45.120;37.660;2023-06-22T10:25:13;29.87;42.54
64652;HTU21D;51062;45.120;37.660;2023-06-22T10:27:40;29.89;42.39
64652;HTU21D;51062;45.120;37.660;2023-06-22T10:30:07;29.82;42.40
64652;HTU21D;51062;45.120;37.660;2023-06-22T10:32:33;29.77;42.39
64652;HTU21D;51062;45.120;37.660;2023-06-22T10:34:59;29.71;42.39
64652;HTU21D;51062;45.120;37.660;2023-06-22T10:37:26;29.64;42.42
64652;HTU21D;51062;45.120;37.660;2023-06-22T10:39:52;29.58;42.36
64652;HTU21D;51062;45.120;37.660;2023-06-22T10:42:18;29.54;42.47
64652;HTU21D;51062;45.120;37.660;2023-06-22T10:44:44;29.53;42.46
64652;HTU21D;51062;45.120;37.660;2023-06-22T10:47:10;29.58;42.48
64652;HTU21D;51062;45.120;37.660;2023-06-22T10:49:39;29.59;42.32
64652;HTU21D;51062;45.120;37.660;2023-06-22T10:52:09;29.53;42.28
64652;HTU21D;51062;45.120;37.660;2023-06-22T10:54:36;29.51;42.27
64652;HTU21D;51062;45.120;37.660;2023-06-22T10:57:02;29.52;42.21
64652;HTU21D;51062;45.120;37.660;2023-06-22T10:59:29;29.56;42.19
64652;HTU21D;51062;45.120;37.660;2023-06-22T11:01:55;29.56;42.13
64652;HTU21D;51062;45.120;37.660;2023-06-22T11:04:22;29.57;42.12
64652;HTU21D;51062;45.120;37.660;2023-06-22T11:06:48;29.53;42.13
64652;HTU21D;51062;45.120;37.660;2023-06-22T11:09:15;29.56;42.05
64652;HTU21D;51062;45.120;37.660;2023-06-22T11:11:47;29.56;42.01
64652;HTU21D;51062;45.120;37.660;2023-06-22T11:14:14;29.56;42.03
64652;HTU21D;51062;45.120;37.660;2023-06-22T11:16:40;29.56;41.90
64652;HTU21D;51062;45.120;37.660;2023-06-22T11:19:06;29.47;41.91
64652;HTU21D;51062;45.120;37.660;2023-06-22T11:21:32;29.39;41.95
64652;HTU21D;51062;45.120;37.660;2023-06-22T11:23:59;29.35;41.92
64652;HTU21D;51062;45.120;37.660;2023-06-22T11:26:26;29.32;41.90
64652;HTU21D;51062;45.120;37.660;2023-06-22T11:28:55;29.33;41.85
64652;HTU21D;51062;45.120;37.660;2023-06-22T11:31:21;29.34;41.80
64652;HTU21D;51062;45.120;37.660;2023-06-22T11:33:47;29.35;41.77
64652;HTU21D;51062;45.120;37.660;2023-06-22T11:36:14;29.34;41.82
64652;HTU21D;51062;45.120;37.660;2023-06-22T11:38:41;29.37;41.78
64652;HTU21D;51062;45.120;37.660;2023-06-22T11:41:09;29.43;41.78
64652;HTU21D;51062;45.120;37.660;2023-06-22T11:43:36;29.49;41.65
64652;HTU21D;51062;45.120;37.660;2023-06-22T11:46:03;29.45;41.49
64652;HTU21D;51062;45.120;37.660;2023-06-22T11:48:30;29.37;41.52
64652;HTU21D;51062;45.120;37.660;2023-06-22T11:50:56;29.34;41.56
64652;HTU21D;51062;45.120;37.660;2023-06-22T11:53:24;29.32;41.58
64652;HTU21D;51062;45.120;37.660;2023-06-22T11:55:50;29.32;41.52
64652;HTU21D;51062;45.120;37.660;2023-06-22T11:58:17;29.30;41.40
64652;HTU21D;51062;45.120;37.660;2023-06-22T12:00:43;29.21;41.44
64652;HTU21D;51062;45.120;37.660;2023-06-22T12:03:09;29.16;41.42
64652;HTU21D;51062;45.120;37.660;2023-06-22T12:05:37;29.12;41.33
64652;HTU21D;51062;45.120;37.660;2023-06-22T12:08:03;29.06;41.34
64652;HTU21D;51062;45.120;37.660;2023-06-22T12:10:30;29.05;41.30
64652;HTU21D;51062;45.120;37.660;2023-06-22T12:12:56;29.05;41.22
64652;HTU21D;51062;45.120;37.660;2023-06-22T12:15:26;29.04;41.13
64652;HTU21D;51062;45.120;37.660;2023-06-22T12:17:53;29.01;41.03
64652;HTU21D;51062;45.120;37.660;2023-06-22T12:20:19;28.99;41.07
64652;HTU21D;51062;45.120;37.660;2023-06-22T12:22:45;28.99;41.00
64652;HTU21D;51062;45.120;37.660;2023-06-22T12:25:11;28.98;40.87
64652;HTU21D;51062;45.120;37.660;2023-06-22T12:27:38;28.93;40.78
64652;HTU21D;51062;45.120;37.660;2023-06-22T12:30:04;28.89;40.78
64652;HTU21D;51062;45.120;37.660;2023-06-22T12:32:31;28.87;40.77
64652;HTU21D;51062;45.120;37.660;2023-06-22T12:34:57;28.87;40.75
64652;HTU21D;51062;45.120;37.660;2023-06-22T12:37:23;28.85;40.59
64652;HTU21D;51062;45.120;37.660;2023-06-22T12:39:49;28.75;40.56
64652;HTU21D;51062;45.120;37.660;2023-06-22T12:42:16;28.68;40.78
64652;HTU21D;51062;45.120;37.660;2023-06-22T12:44:42;28.61;40.75
64652;HTU21D;51062;45.120;37.660;2023-06-22T12:47:09;28.56;40.86
64652;HTU21D;51062;45.120;37.660;2023-06-22T12:49:35;28.54;40.79
64652;HTU21D;51062;45.120;37.660;2023-06-22T12:52:02;28.52;40.80
64652;HTU21D;51062;45.120;37.660;2023-06-22T12:54:28;28.50;40.77
64652;HTU21D;51062;45.120;37.660;2023-06-22T12:56:56;28.48;40.69
64652;HTU21D;51062;45.120;37.660;2023-06-22T12:59:22;28.44;40.64
64652;HTU21D;51062;45.120;37.660;2023-06-22T13:01:48;28.42;40.68
64652;HTU21D;51062;45.120;37.660;2023-06-22T13:04:14;28.41;40.71
64652;HTU21D;51062;45.120;37.660;2023-06-22T13:06:46;28.42;40.70
64652;HTU21D;51062;45.120;37.660;2023-06-22T13:09:18;28.42;40.67
64652;HTU21D;51062;45.120;37.660;2023-06-22T13:11:44;28.41;40.65
64652;HTU21D;51062;45.120;37.660;2023-06-22T13:14:11;28.38;40.62
64652;HTU21D;51062;45.120;37.660;2023-06-22T13:16:37;28.35;40.64
64652;HTU21D;51062;45.120;37.660;2023-06-22T13:19:03;28.34;40.60
64652;HTU21D;51062;45.120;37.660;2023-06-22T13:21:30;28.31;40.55
64652;HTU21D;51062;45.120;37.660;2023-06-22T13:23:56;28.26;40.55
64652;HTU21D;51062;45.120;37.660;2023-06-22T13:26:22;28.24;40.58
64652;HTU21D;51062;45.120;37.660;2023-06-22T13:28:48;28.23;40.60
64652;HTU21D;51062;45.120;37.660;2023-06-22T13:31:14;28.21;40.65
64652;HTU21D;51062;45.120;37.660;2023-06-22T13:33:40;28.20;40.66
64652;HTU21D;51062;45.120;37.660;2023-06-22T13:36:07;28.18;40.62
64652;HTU21D;51062;45.120;37.660;2023-06-22T13:38:35;28.17;40.62
64652;HTU21D;51062;45.120;37.660;2023-06-22T13:41:05;28.13;40.65
64652;HTU21D;51062;45.120;37.660;2023-06-22T13:43:31;28.12;40.68
64652;HTU21D;51062;45.120;37.660;2023-06-22T13:45:58;28.09;40.67
64652;HTU21D;51062;45.120;37.660;2023-06-22T13:48:24;28.04;40.66
64652;HTU21D;51062;45.120;37.660;2023-06-22T13:50:52;28.01;40.71
64652;HTU21D;51062;45.120;37.660;2023-06-22T13:53:18;27.99;40.71
64652;HTU21D;51062;45.120;37.660;2023-06-22T13:55:44;27.97;40.70
64652;HTU21D;51062;45.120;37.660;2023-06-22T13:58:10;27.97;40.70
64652;HTU21D;51062;45.120;37.660;2023-06-22T14:00:36;27.96;40.70
64652;HTU21D;51062;45.120;37.660;2023-06-22T14:03:03;27.95;40.71
64652;HTU21D;51062;45.120;37.660;2023-06-22T14:05:29;27.95;40.72
64652;HTU21D;51062;45.120;37.660;2023-06-22T14:07:55;27.95;40.71
64652;HTU21D;51062;45.120;37.660;2023-06-22T14:10:21;27.93;40.74
64652;HTU21D;51062;45.120;37.660;2023-06-22T14:12:47;27.90;40.71
64652;HTU21D;51062;45.120;37.660;2023-06-22T14:15:13;27.85;40.72
64652;HTU21D;51062;45.120;37.660;2023-06-22T14:17:39;27.79;40.77
64652;HTU21D;51062;45.120;37.660;2023-06-22T14:20:06;27.73;40.80
64652;HTU21D;51062;45.120;37.660;2023-06-22T14:22:34;27.66;40.83
64652;HTU21D;51062;45.120;37.660;2023-06-22T14:25:01;27.57;40.90
64652;HTU21D;51062;45.120;37.660;2023-06-22T14:27:27;27.55;40.96
64652;HTU21D;51062;45.120;37.660;2023-06-22T14:29:53;27.51;41.01
64652;HTU21D;51062;45.120;37.660;2023-06-22T14:32:19;27.47;41.03
64652;HTU21D;51062;45.120;37.660;2023-06-22T14:34:45;27.42;41.07
64652;HTU21D;51062;45.120;37.660;2023-06-22T14:37:11;27.36;41.10
64652;HTU21D;51062;45.120;37.660;2023-06-22T14:39:40;27.29;41.16
64652;HTU21D;51062;45.120;37.660;2023-06-22T14:42:08;27.24;41.21
64652;HTU21D;51062;45.120;37.660;2023-06-22T14:44:34;27.20;41.26
64652;HTU21D;51062;45.120;37.660;2023-06-22T14:47:00;27.15;41.31
64652;HTU21D;51062;45.120;37.660;2023-06-22T14:49:26;27.12;41.33
64652;HTU21D;51062;45.120;37.660;2023-06-22T14:51:52;27.06;41.36
64652;HTU21D;51062;45.120;37.660;2023-06-22T14:54:19;26.99;41.40
64652;HTU21D;51062;45.120;37.660;2023-06-22T14:56:45;26.95;41.44
64652;HTU21D;51062;45.120;37.660;2023-06-22T14:59:12;26.93;41.46
64652;HTU21D;51062;45.120;37.660;2023-06-22T15:01:38;26.90;41.49
64652;HTU21D;51062;45.120;37.660;2023-06-22T15:04:04;26.86;41.47